createdAt,value
2022-10-04T00:01:28.017Z,5.75
2022-10-04T00:04:07.436Z,4.95
2022-10-04T00:06:39.559Z,5.18
2022-10-04T00:09:13.416Z,4.38
2022-10-04T00:11:46.251Z,4.32
2022-10-04T00:14:20.986Z,4.57
2022-10-04T00:16:50.863Z,4.93
2022-10-04T00:19:45.295Z,4.28
2022-10-04T00:22:17.753Z,4.65
2022-10-04T00:25:20.149Z,7.32
2022-10-04T00:28:18.467Z,4.80
2022-10-04T00:31:03.760Z,4.80
2022-10-04T00:33:37.340Z,4.00
2022-10-04T00:36:37.906Z,6.40
2022-10-04T00:39:44.926Z,6.03
2022-10-04T00:42:54.742Z,7.35
2022-10-04T00:45:35.401Z,5.78
2022-10-04T00:48:31.399Z,5.97
2022-10-04T00:51:06.255Z,7.25
2022-10-04T00:53:54.895Z,6.28
2022-10-04T00:56:29.841Z,5.93
2022-10-04T00:59:28.594Z,5.35
2022-10-04T01:04:40.948Z,5.55
2022-10-04T01:07:11.344Z,4.82
2022-10-04T01:09:48.436Z,4.63
2022-10-04T01:12:28.803Z,5.43
2022-10-04T01:15:06.348Z,13.45
2022-10-04T01:17:35.061Z,4.93
2022-10-04T01:20:04.217Z,6.28
2022-10-04T01:22:41.502Z,5.32
2022-10-04T01:25:10.644Z,5.80
2022-10-04T01:27:44.318Z,5.05
2022-10-04T01:30:14.935Z,5.38
2022-10-04T01:32:45.358Z,7.53
2022-10-04T01:35:17.122Z,4.18
2022-10-04T01:37:47.243Z,5.20
2022-10-04T01:40:16.431Z,6.45
2022-10-04T01:42:51.586Z,6.90
2022-10-04T01:45:29.900Z,5.18
2022-10-04T01:48:02.124Z,4.85
2022-10-04T01:50:35.025Z,4.95
2022-10-04T01:53:15.809Z,7.55
2022-10-04T01:55:47.432Z,4.15
2022-10-04T01:58:20.032Z,7.65
2022-10-04T02:00:55.427Z,5.53
2022-10-04T02:03:31.063Z,4.65
2022-10-04T02:06:02.523Z,6.07
2022-10-04T02:08:35.868Z,11.15
2022-10-04T02:11:06.463Z,5.65
2022-10-04T02:13:41.367Z,5.38
2022-10-04T02:16:12.965Z,6.45
2022-10-04T02:18:44.300Z,4.82
2022-10-04T02:21:15.379Z,4.25
2022-10-04T02:23:46.983Z,9.85
2022-10-04T02:26:15.606Z,8.85
2022-10-04T02:28:44.184Z,5.50
2022-10-04T02:31:30.734Z,5.65
2022-10-04T02:34:00.351Z,5.30
2022-10-04T02:36:30.696Z,10.45
2022-10-04T02:39:04.102Z,7.20
2022-10-04T02:41:36.821Z,6.00
2022-10-04T02:44:12.848Z,7.00
2022-10-04T02:46:51.525Z,8.75
2022-10-04T02:49:29.937Z,5.32
2022-10-04T02:52:05.528Z,5.43
2022-10-04T02:54:41.224Z,6.80
2022-10-04T02:57:16.850Z,8.32
2022-10-04T02:59:45.413Z,6.97
2022-10-04T03:02:29.561Z,7.45
2022-10-04T03:05:06.220Z,12.02
2022-10-04T03:07:37.093Z,6.68
2022-10-04T03:10:12.143Z,6.13
2022-10-04T03:12:42.055Z,9.70
2022-10-04T03:15:13.159Z,10.45
2022-10-04T03:17:43.150Z,7.82
2022-10-04T03:20:16.358Z,9.65
2022-10-04T03:22:47.445Z,9.32
2022-10-04T03:25:21.839Z,6.60
2022-10-04T03:27:52.537Z,5.05
2022-10-04T03:30:21.311Z,6.18
2022-10-04T03:32:51.648Z,6.60
2022-10-04T03:35:29.738Z,6.50
2022-10-04T03:37:59.269Z,8.50
2022-10-04T03:40:32.755Z,9.40
2022-10-04T03:43:04.695Z,8.35
2022-10-04T03:45:35.770Z,6.82
2022-10-04T03:48:08.232Z,6.50
2022-10-04T03:50:41.317Z,5.80
2022-10-04T03:53:17.394Z,8.65
2022-10-04T03:55:47.645Z,8.70
2022-10-04T03:58:19.289Z,6.60
2022-10-04T04:01:03.200Z,8.60
2022-10-04T04:03:39.297Z,8.05
2022-10-04T04:06:15.247Z,7.75
2022-10-04T04:08:46.971Z,7.57
2022-10-04T04:11:23.099Z,7.68
2022-10-04T04:13:59.878Z,10.27
2022-10-04T04:16:29.175Z,11.27
2022-10-04T04:19:04.756Z,6.97
2022-10-04T04:21:34.363Z,6.50
2022-10-04T04:24:08.344Z,7.82
2022-10-04T04:26:43.526Z,8.73
2022-10-04T04:29:19.827Z,6.00
2022-10-04T04:31:53.900Z,6.40
2022-10-04T04:34:26.100Z,8.95
2022-10-04T04:37:00.406Z,7.65
2022-10-04T04:39:37.537Z,6.00
2022-10-04T04:42:19.354Z,8.98
2022-10-04T04:44:50.371Z,9.15
2022-10-04T04:47:31.571Z,7.05
2022-10-04T04:50:06.927Z,9.93
2022-10-04T04:52:37.241Z,8.95
2022-10-04T04:55:08.183Z,8.80
2022-10-04T04:57:40.764Z,6.25
2022-10-04T05:00:17.706Z,9.95
2022-10-04T05:02:58.374Z,7.47
2022-10-04T05:05:30.484Z,7.22
2022-10-04T05:08:13.914Z,10.95
2022-10-04T05:10:44.474Z,8.60
2022-10-04T05:13:15.997Z,7.30
2022-10-04T05:15:45.232Z,5.75
2022-10-04T05:18:29.511Z,7.32
2022-10-04T05:21:04.504Z,7.13
2022-10-04T05:23:33.908Z,5.82
2022-10-04T05:26:04.356Z,5.75
2022-10-04T05:28:34.884Z,7.93
2022-10-04T05:31:34.476Z,5.53
2022-10-04T05:34:08.178Z,6.28
2022-10-04T05:36:54.877Z,5.55
2022-10-04T05:39:29.071Z,7.68
2022-10-04T05:42:07.917Z,8.90
2022-10-04T05:47:16.176Z,7.63
2022-10-04T05:49:51.060Z,5.45
2022-10-04T05:52:30.668Z,9.05
2022-10-04T05:55:27.300Z,6.15
2022-10-04T05:58:26.200Z,10.05
2022-10-04T06:01:15.500Z,9.48
2022-10-04T06:04:11.239Z,7.00
2022-10-04T06:06:44.380Z,7.13
2022-10-04T06:09:23.096Z,7.50
2022-10-04T06:12:02.351Z,8.57
2022-10-04T06:15:00.480Z,8.20
2022-10-04T06:17:50.654Z,9.95
2022-10-04T06:20:43.848Z,6.38
2022-10-04T06:23:17.008Z,7.68
2022-10-04T06:25:48.789Z,12.32
2022-10-04T06:28:22.961Z,8.88
2022-10-04T06:31:16.309Z,6.00
2022-10-04T06:34:02.847Z,8.93
2022-10-04T06:36:52.808Z,6.28
2022-10-04T06:39:39.559Z,7.82
2022-10-04T06:42:34.716Z,7.20
2022-10-04T06:45:31.804Z,5.93
2022-10-04T06:48:33.681Z,5.40
2022-10-04T06:51:16.629Z,6.72
2022-10-04T06:53:59.231Z,6.00
2022-10-04T06:56:56.041Z,5.05
2022-10-04T06:59:41.831Z,8.95
2022-10-04T07:02:17.610Z,5.55
2022-10-04T07:05:07.713Z,6.47
2022-10-04T07:07:42.097Z,4.90
2022-10-04T07:10:27.373Z,4.70
2022-10-04T07:13:11.957Z,2.88
2022-10-04T07:15:48.795Z,7.93
2022-10-04T07:18:24.324Z,5.03
2022-10-04T07:21:02.207Z,4.97
2022-10-04T07:23:38.380Z,9.30
2022-10-04T07:26:16.398Z,5.68
2022-10-04T07:29:04.115Z,4.97
2022-10-04T07:31:35.485Z,4.57
2022-10-04T07:34:12.030Z,7.05
2022-10-04T07:36:47.177Z,5.50
2022-10-04T07:39:20.262Z,5.68
2022-10-04T07:41:54.456Z,5.68
2022-10-04T07:44:34.263Z,5.07
2022-10-04T07:47:11.070Z,3.55
2022-10-04T07:49:40.913Z,6.97
2022-10-04T07:52:26.001Z,5.10
2022-10-04T07:55:05.474Z,5.57
2022-10-04T07:57:45.161Z,3.50
2022-10-04T08:00:19.048Z,6.68
2022-10-04T08:03:06.891Z,4.57
2022-10-04T08:05:42.305Z,8.67
2022-10-04T08:08:25.722Z,4.47
2022-10-04T08:11:08.548Z,5.93
2022-10-04T08:13:46.200Z,5.82
2022-10-04T08:16:27.376Z,6.03
2022-10-04T08:19:11.868Z,6.78
2022-10-04T08:21:48.567Z,5.07
2022-10-04T08:24:26.193Z,4.32
2022-10-04T08:27:17.017Z,5.07
2022-10-04T08:30:04.756Z,8.93
2022-10-04T08:32:47.296Z,5.10
2022-10-04T08:35:34.411Z,7.18
2022-10-04T08:38:21.427Z,4.93
2022-10-04T08:41:27.987Z,5.25
2022-10-04T08:44:17.526Z,7.10
2022-10-04T08:47:12.027Z,3.97
2022-10-04T08:50:09.491Z,4.00
2022-10-04T08:53:11.074Z,6.03
2022-10-04T08:56:18.013Z,3.95
2022-10-04T08:59:17.467Z,9.13
2022-10-04T09:02:41.859Z,7.97
2022-10-04T09:05:31.251Z,7.60
2022-10-04T09:08:40.264Z,4.45
2022-10-04T09:11:28.236Z,5.70
2022-10-04T09:14:20.273Z,9.60
2022-10-04T09:16:50.637Z,4.30
2022-10-04T09:19:24.149Z,7.32
2022-10-04T09:22:14.695Z,5.22
2022-10-04T09:25:07.033Z,4.57
2022-10-04T09:27:58.669Z,5.03
2022-10-04T09:30:42.821Z,6.43
2022-10-04T09:33:52.245Z,5.78
2022-10-04T09:36:43.218Z,5.43
2022-10-04T09:39:37.084Z,5.47
2022-10-04T09:42:38.529Z,12.00
2022-10-04T09:45:45.752Z,10.48
2022-10-04T09:48:40.720Z,6.45
2022-10-04T09:51:24.828Z,6.60
2022-10-04T09:54:15.641Z,4.97
2022-10-04T09:57:13.807Z,4.88
2022-10-04T10:00:10.756Z,5.07
2022-10-04T10:03:12.239Z,5.40
2022-10-04T10:06:04.664Z,6.63
2022-10-04T10:08:45.541Z,5.97
2022-10-04T10:11:39.415Z,5.40
2022-10-04T10:14:52.126Z,6.45
2022-10-04T10:17:30.325Z,7.15
2022-10-04T10:20:31.309Z,5.68
2022-10-04T10:23:46.932Z,5.30
2022-10-04T10:26:38.296Z,4.95
2022-10-04T10:29:32.949Z,5.90
2022-10-04T10:32:20.729Z,4.60
2022-10-04T10:35:20.636Z,8.50
2022-10-04T10:38:15.501Z,4.43
2022-10-04T10:40:59.993Z,7.28
2022-10-04T10:43:55.578Z,4.25
2022-10-04T10:46:38.096Z,6.53
2022-10-04T10:49:31.986Z,5.68
2022-10-04T10:52:42.504Z,4.07
2022-10-04T10:55:30.363Z,4.55
2022-10-04T10:58:38.972Z,7.40
2022-10-04T11:01:35.771Z,6.28
2022-10-04T11:04:26.983Z,7.75
2022-10-04T11:07:16.567Z,7.13
2022-10-04T11:10:06.896Z,4.10
2022-10-04T11:12:58.068Z,2.97
2022-10-04T11:16:01.434Z,3.85
2022-10-04T11:19:07.806Z,6.47
2022-10-04T11:22:07.712Z,5.88
2022-10-04T11:25:01.879Z,3.28
2022-10-04T11:27:49.349Z,3.97
2022-10-04T11:30:23.648Z,7.50
2022-10-04T11:33:28.445Z,4.25
2022-10-04T11:36:34.380Z,4.93
2022-10-04T11:39:16.743Z,2.90
2022-10-04T11:41:52.377Z,3.55
2022-10-04T11:45:00.005Z,4.13
2022-10-04T11:47:43.247Z,2.93
2022-10-04T11:50:35.348Z,3.83
2022-10-04T11:53:37.388Z,3.05
2022-10-04T11:56:36.439Z,2.28
2022-10-04T11:59:22.048Z,3.53
2022-10-04T12:02:27.154Z,3.95
2022-10-04T12:05:39.387Z,2.17
2022-10-04T12:08:28.757Z,1.75
2022-10-04T12:11:26.761Z,1.73
2022-10-04T12:14:12.051Z,1.67
2022-10-04T12:17:04.062Z,3.10
2022-10-04T12:19:55.594Z,1.20
2022-10-04T12:22:40.262Z,3.72
2022-10-04T12:25:42.884Z,1.75
2022-10-04T12:28:27.955Z,3.17
2022-10-04T12:31:12.724Z,4.32
2022-10-04T12:33:50.461Z,3.25
2022-10-04T12:36:41.203Z,3.33
2022-10-04T12:39:22.297Z,4.85
2022-10-04T12:42:02.412Z,2.17
2022-10-04T12:44:45.873Z,3.25
2022-10-04T12:47:48.379Z,2.42
2022-10-04T12:50:27.337Z,4.50
2022-10-04T12:55:48.793Z,3.15
2022-10-04T12:58:26.138Z,2.42
2022-10-04T13:01:02.319Z,3.50
2022-10-04T13:03:42.954Z,3.58
2022-10-04T13:06:22.191Z,3.92
2022-10-04T13:09:02.926Z,2.78
2022-10-04T13:11:50.237Z,4.15
2022-10-04T13:14:33.412Z,3.15
2022-10-04T13:17:34.845Z,3.42
2022-10-04T13:20:19.507Z,4.05
2022-10-04T13:22:57.736Z,2.85
2022-10-04T13:26:03.566Z,2.38
2022-10-04T13:28:39.701Z,1.48
2022-10-04T13:31:15.205Z,1.23
2022-10-04T13:33:50.947Z,2.88
2022-10-04T13:36:27.727Z,6.40
2022-10-04T13:39:25.613Z,2.33
2022-10-04T13:42:12.246Z,5.90
2022-10-04T13:45:03.189Z,3.72
2022-10-04T13:47:55.772Z,1.83
2022-10-04T13:50:38.382Z,1.63
2022-10-04T13:53:44.188Z,2.38
2022-10-04T13:56:40.610Z,1.85
2022-10-04T13:59:19.934Z,2.78
2022-10-04T14:02:29.950Z,4.70
2022-10-04T14:05:34.486Z,2.20
2022-10-04T14:08:36.895Z,1.17
2022-10-04T14:11:35.941Z,3.35
2022-10-04T14:14:45.268Z,3.60
2022-10-04T14:17:28.979Z,3.30
2022-10-04T14:20:24.227Z,2.28
2022-10-04T14:23:24.355Z,4.85
2022-10-04T14:26:20.337Z,3.72
2022-10-04T14:29:21.685Z,3.35
2022-10-04T14:32:20.657Z,5.63
2022-10-04T14:34:58.311Z,3.67
2022-10-04T14:38:04.992Z,2.50
2022-10-04T14:41:09.573Z,4.45
2022-10-04T14:44:15.957Z,3.45
2022-10-04T14:46:56.188Z,3.03
2022-10-04T14:49:40.057Z,4.40
2022-10-04T14:52:25.687Z,4.28
2022-10-04T14:54:58.799Z,2.72
2022-10-04T14:57:53.079Z,4.07
2022-10-04T15:00:23.890Z,4.28
2022-10-04T15:03:20.888Z,5.25
2022-10-04T15:06:11.158Z,4.40
2022-10-04T15:09:07.358Z,5.38
2022-10-04T15:12:21.555Z,7.28
2022-10-04T15:15:16.898Z,6.57
2022-10-04T15:18:00.101Z,7.75
2022-10-04T15:20:34.751Z,15.20
2022-10-04T15:23:16.122Z,8.13
2022-10-04T15:25:47.489Z,7.55
2022-10-04T15:28:36.216Z,12.60
2022-10-04T15:34:06.739Z,12.80
2022-10-04T15:37:15.690Z,10.40
2022-10-04T15:40:30.799Z,10.43
2022-10-04T15:43:22.068Z,8.20
2022-10-04T15:46:26.860Z,12.15
2022-10-04T15:49:14.318Z,7.70
2022-10-04T15:52:04.771Z,6.70
2022-10-04T15:55:08.779Z,26.20
2022-10-04T15:57:56.865Z,22.70
2022-10-04T16:00:35.868Z,24.75
2022-10-04T16:03:18.445Z,14.80
2022-10-04T16:06:04.255Z,12.77
2022-10-04T16:09:06.560Z,7.03
2022-10-04T16:11:48.881Z,11.02
2022-10-04T16:14:40.223Z,7.90
2022-10-04T16:17:47.566Z,8.25
2022-10-04T16:21:09.309Z,6.00
2022-10-04T16:23:51.389Z,6.50
2022-10-04T16:26:56.352Z,7.85
2022-10-04T16:29:34.711Z,10.00
2022-10-04T16:32:16.996Z,8.27
2022-10-04T16:34:54.844Z,6.88
2022-10-04T16:37:56.586Z,31.70
2022-10-04T16:40:41.150Z,21.42
2022-10-04T16:43:26.432Z,19.70
2022-10-04T16:46:20.256Z,11.35
2022-10-04T16:48:56.275Z,6.78
2022-10-04T16:51:44.241Z,7.68
2022-10-04T16:54:44.424Z,7.38
2022-10-04T16:57:28.870Z,6.68
2022-10-04T17:00:00.753Z,6.60
2022-10-04T17:03:06.864Z,5.90
2022-10-04T17:05:59.135Z,5.47
2022-10-04T17:08:49.899Z,4.97
2022-10-04T17:12:01.949Z,6.05
2022-10-04T17:15:08.434Z,6.38
2022-10-04T17:17:54.422Z,6.18
2022-10-04T17:20:39.725Z,5.53
2022-10-04T17:23:46.845Z,5.60
2022-10-04T17:26:34.921Z,5.22
2022-10-04T17:29:17.227Z,5.72
2022-10-04T17:31:59.237Z,5.80
2022-10-04T17:34:47.035Z,8.43
2022-10-04T17:37:29.869Z,7.97
2022-10-04T17:40:22.222Z,6.07
2022-10-04T17:43:00.656Z,5.25
2022-10-04T17:45:45.573Z,5.97
2022-10-04T17:48:36.412Z,6.80
2022-10-04T17:51:31.823Z,6.85
2022-10-04T17:56:04.408Z,5.00
2022-10-04T17:58:43.277Z,6.68
2022-10-04T18:03:52.800Z,6.43
2022-10-04T18:06:31.672Z,6.38
2022-10-04T18:09:04.332Z,6.03
2022-10-04T18:11:47.501Z,6.93
2022-10-04T18:14:42.238Z,5.38
2022-10-04T18:17:14.980Z,7.97
2022-10-04T18:19:55.064Z,8.07
2022-10-04T18:22:27.425Z,10.77
2022-10-04T18:25:17.431Z,7.90
2022-10-04T18:27:55.059Z,5.85
2022-10-04T18:30:24.528Z,6.40
2022-10-04T18:32:55.857Z,7.50
2022-10-04T18:35:39.740Z,6.22
2022-10-04T18:38:24.662Z,6.28
2022-10-04T18:40:59.757Z,5.30
2022-10-04T18:43:33.349Z,5.45
2022-10-04T18:48:54.468Z,8.98
2022-10-04T18:51:27.889Z,5.50
2022-10-04T18:54:21.494Z,6.55
2022-10-04T18:57:00.992Z,5.72
2022-10-04T18:59:56.602Z,6.80
2022-10-04T19:02:35.069Z,7.60
2022-10-04T19:05:17.930Z,5.95
2022-10-04T19:07:59.188Z,6.55
2022-10-04T19:10:33.806Z,6.47
2022-10-04T19:13:15.588Z,6.25
2022-10-04T19:15:58.773Z,5.55
2022-10-04T19:18:44.675Z,5.85
2022-10-04T19:21:26.711Z,5.82
2022-10-04T19:24:18.398Z,9.02
2022-10-04T19:26:51.655Z,4.43
2022-10-04T19:29:34.192Z,7.65
2022-10-04T19:32:09.114Z,6.32
2022-10-04T19:34:49.223Z,6.30
2022-10-04T19:37:27.015Z,7.05
2022-10-04T19:40:07.506Z,6.30
2022-10-04T19:42:46.205Z,5.85
2022-10-04T19:45:27.177Z,5.57
2022-10-04T19:48:03.176Z,6.25
2022-10-04T19:50:37.260Z,5.43
2022-10-04T19:53:16.508Z,5.05
2022-10-04T19:55:52.755Z,4.28
2022-10-04T19:58:32.099Z,3.97
2022-10-04T20:01:14.286Z,6.50
2022-10-04T20:03:45.825Z,5.93
2022-10-04T20:06:26.325Z,4.13
2022-10-04T20:09:02.273Z,4.90
2022-10-04T20:11:49.632Z,4.88
2022-10-04T20:15:02.497Z,5.38
2022-10-04T20:17:34.473Z,4.15
2022-10-04T20:20:04.928Z,4.07
2022-10-04T20:22:56.693Z,5.22
2022-10-04T20:26:07.550Z,4.38
2022-10-04T20:28:44.551Z,5.00
2022-10-04T20:31:52.190Z,6.75
2022-10-04T20:34:32.776Z,4.53
2022-10-04T20:37:03.646Z,5.90
2022-10-04T20:40:02.352Z,4.07
2022-10-04T20:42:39.369Z,2.33
2022-10-04T20:45:23.669Z,4.53
2022-10-04T20:47:57.740Z,6.40
2022-10-04T20:50:49.812Z,2.70
2022-10-04T20:53:24.533Z,3.53
2022-10-04T20:56:09.376Z,3.70
2022-10-04T20:58:37.999Z,3.75
2022-10-04T21:01:40.095Z,7.70
2022-10-04T21:04:15.864Z,3.55
2022-10-04T21:07:01.542Z,3.95
2022-10-04T21:09:35.017Z,3.45
2022-10-04T21:12:04.363Z,3.25
2022-10-04T21:14:36.327Z,3.03
2022-10-04T21:17:06.199Z,2.78
2022-10-04T21:19:46.980Z,3.13
2022-10-04T21:22:40.953Z,2.67
2022-10-04T21:25:32.206Z,5.45
2022-10-04T21:28:35.674Z,6.68
2022-10-04T21:31:07.203Z,3.80
2022-10-04T21:33:37.092Z,2.75
2022-10-04T21:36:07.456Z,3.85
2022-10-04T21:38:36.026Z,2.85
2022-10-04T21:41:06.906Z,2.97
2022-10-04T21:43:47.746Z,3.17
2022-10-04T21:46:20.241Z,2.35
2022-10-04T21:48:52.067Z,3.38
2022-10-04T21:51:23.871Z,5.38
2022-10-04T21:53:52.332Z,4.95
2022-10-04T21:56:24.837Z,4.50
2022-10-04T21:58:53.359Z,3.67
2022-10-04T22:01:21.840Z,3.97
2022-10-04T22:03:50.246Z,3.75
2022-10-04T22:06:20.233Z,4.72
2022-10-04T22:08:49.705Z,3.38
2022-10-04T22:11:18.416Z,3.30
2022-10-04T22:13:55.498Z,4.53
2022-10-04T22:16:24.097Z,4.80
2022-10-04T22:18:52.641Z,4.72
2022-10-04T22:21:21.018Z,4.60
2022-10-04T22:23:52.192Z,7.65
2022-10-04T22:26:23.623Z,3.83
2022-10-04T22:28:55.179Z,5.97
2022-10-04T22:31:27.597Z,3.38
2022-10-04T22:33:56.924Z,3.45
2022-10-04T22:36:28.461Z,2.97
2022-10-04T22:39:01.926Z,3.15
2022-10-04T22:41:33.281Z,7.75
2022-10-04T22:44:11.666Z,3.20
2022-10-04T22:46:48.183Z,4.57
2022-10-04T22:49:19.303Z,4.60
2022-10-04T22:51:50.221Z,3.85
2022-10-04T22:54:22.110Z,3.65
2022-10-04T22:56:50.968Z,2.10
2022-10-04T22:59:22.209Z,4.22
2022-10-04T23:01:50.807Z,6.30
2022-10-04T23:04:24.601Z,4.53
2022-10-04T23:06:54.196Z,6.32
2022-10-04T23:09:24.788Z,7.22
2022-10-04T23:11:53.239Z,3.22
2022-10-04T23:14:24.301Z,3.70
2022-10-04T23:16:55.297Z,5.55
2022-10-04T23:19:24.005Z,7.47
2022-10-04T23:21:52.423Z,5.80
2022-10-04T23:24:23.539Z,5.47
2022-10-04T23:26:57.295Z,6.28
2022-10-04T23:29:33.029Z,5.57
2022-10-04T23:32:10.884Z,4.63
2022-10-04T23:34:52.962Z,3.57
2022-10-04T23:37:27.075Z,5.40
2022-10-04T23:39:55.840Z,4.38
2022-10-04T23:42:29.888Z,6.70
2022-10-04T23:45:02.362Z,5.32
2022-10-04T23:47:35.044Z,6.80
2022-10-04T23:50:08.659Z,5.15
2022-10-04T23:52:40.080Z,2.95
2022-10-04T23:55:17.190Z,4.80
2022-10-04T23:57:45.886Z,5.03
